• Join FlightAware (Why Join?)
  • Login
  • US Flag 
08:35AM EDT


 

Airport Tracker/Info


-or-


 

Live Flight TrackerFlight Track Log ✈ EJA929 ✈ 29-Jun-2013 ✈ KCMA - KJAC

Flight Track Log - Related Links

Times and Time Zones

All times are in EDT time to prevent confusion due to time zone crossing. See the EJA929 flight status page for this flight to view local times or setup timezone preferences in your user account.

Time Position Orientation Groundspeed Altitude Reporting Facility
EDT Latitude Longitude Course Direction KTS MPH feet Rate Location/Type
03:09PM 34.2139 -119.1178 264° West 184 212 900  Level Los Angeles Center
03:09PM 34.2108 -119.1528 264° West 199 229 2,400 3,180 Climbing Los Angeles Center
03:10PM 34.2033 -119.2194 262° West 246 283 5,000 3,300 Climbing Los Angeles Center
03:11PM 34.1969 -119.3125 265° West 276 318 8,500 3,180 Climbing Los Angeles Center
03:12PM 34.1847 -119.4117 262° West 299 344 11,600 2,940 Climbing Los Angeles Center
03:13PM 34.0936 -119.4244 187° South 362 417 14,600 2,640 Climbing Los Angeles Center
03:14PM 34.0736 -119.3022 101° East 390 449 17,100 1,920 Climbing Los Angeles Center
03:15PM 34.0836 -119.1669 85° East 404 465 18,600 1,260 Climbing Los Angeles Center
03:16PM 34.1283 -119.0400 67° East 409 471 19,800 1,380 Climbing Los Angeles Center
03:17PM 34.1828 -118.8847 67° East 415 478 21,500 1,440 Climbing Los Angeles Center
03:18PM 34.2289 -118.7544 67° East 419 482 22,800 1,200 Climbing Los Angeles Center
03:19PM 34.2756 -118.6214 67° East 425 489 24,000 1,140 Climbing Los Angeles Center
03:20PM 34.3236 -118.4844 67° East 436 502 25,200 1,140 Climbing Los Angeles Center
03:21PM 34.3722 -118.3444 67° East 445 512 26,400 1,080 Climbing Los Angeles Center
03:22PM 34.4200 -118.2017 68° East 452 520 27,500 1,140 Climbing Los Angeles Center
03:24PM 34.4736 -118.0433 68° East 463 533 29,000 1,140 Climbing Los Angeles Center
03:25PM 34.5333 -117.8700 67° East 468 539 30,200 1,080 Climbing Los Angeles Center
03:26PM 34.5900 -117.7242 65° Northeast 481 554 31,300 1,020 Climbing Los Angeles Center
03:27PM 34.6697 -117.5908 54° Northeast 492 566 32,400 1,380 Climbing Los Angeles Center
03:28PM 34.7664 -117.4283 54° Northeast 499 574 34,200 1,740 Climbing Los Angeles Center
03:29PM 34.8456 -117.2947 54° Northeast 494 568 36,000 1,560 Climbing Los Angeles Center
03:30PM 34.9250 -117.1633 54° Northeast 489 563 37,500 1,380 Climbing Los Angeles Center
03:31PM 35.0031 -117.0292 55° Northeast 487 560 38,900 1,200 Climbing Los Angeles Center
03:32PM 35.0678 -116.9194 54° Northeast 496 571 40,000 960 Climbing Los Angeles Center
03:33PM 35.1775 -116.7328 54° Northeast 488 562 41,000 480 Climbing Los Angeles Center
03:34PM 35.2575 -116.5964 54° Northeast 493 567 41,000  Level Los Angeles Center
03:35PM 35.3400 -116.4550 54° Northeast 507 583 41,000  Level Los Angeles Center
03:36PM 35.4222 -116.3136 54° Northeast 509 586 41,000  Level Los Angeles Center
03:37PM 35.5047 -116.1694 55° Northeast 516 594 41,000  Level Los Angeles Center
03:38PM 35.5869 -116.0264 55° Northeast 514 592 41,000  Level Los Angeles Center
03:39PM 35.6983 -115.8731 48° Northeast 511 588 41,000  Level Los Angeles Center
03:40PM 35.8278 -115.7939 26° Northeast 517 595 41,000  Level Los Angeles Center
03:41PM 35.9592 -115.7186 25° Northeast 518 596 41,000  Level Los Angeles Center
03:42PM 36.1150 -115.6286 25° Northeast 515 593 41,000  Level Los Angeles Center
03:43PM 36.2592 -115.5461 25° Northeast 516 594 41,000  Level Los Angeles Center
03:44PM 36.3922 -115.4681 25° Northeast 518 596 41,000  Level Los Angeles Center
03:45PM 36.5208 -115.3942 25° Northeast 514 592 41,000  Level Los Angeles Center
03:46PM 36.6497 -115.3183 25° Northeast 514 592 41,000  Level Los Angeles Center
03:48PM 36.8008 -115.2300 25° Northeast 508 585 41,000  Level Los Angeles Center
03:49PM 36.9147 -115.1619 26° Northeast 505 581 41,000  Level Los Angeles Center
03:50PM 37.0603 -115.0767 25° Northeast 512 589 41,000  Level Los Angeles Center
03:51PM 37.1883 -114.9992 26° Northeast 512 589 41,000  Level Los Angeles Center
03:52PM 37.3164 -114.9228 25° Northeast 509 586 41,000  Level Los Angeles Center
03:53PM 37.4536 -114.8408 25° Northeast 508 585 41,000  Level Los Angeles Center
03:54PM 37.5811 -114.7636 26° Northeast 507 583 41,000  Level Los Angeles Center
03:55PM 37.7094 -114.6858 26° Northeast 509 586 41,000  Level Los Angeles Center
03:56PM 37.8619 -114.5933 26° Northeast 507 583 41,000  Level Los Angeles Center
03:57PM 37.9897 -114.5153 26° Northeast 507 583 41,000  Level Los Angeles Center
03:58PM 38.1422 -114.4211 26° Northeast 506 582 41,000  Level Los Angeles Center
03:59PM 38.2678 -114.3436 26° Northeast 502 578 41,000  Level Los Angeles Center
04:00PM 38.3944 -114.2658 26° Northeast 503 579 41,000  Level Los Angeles Center
04:01PM 38.5714 -114.1553 26° Northeast 504 580 41,000  Level Salt Lake Center
04:03PM 38.6975 -114.0758 26° Northeast 504 580 41,000  Level Salt Lake Center
04:04PM 38.8242 -113.9953 26° Northeast 505 581 41,000  Level Salt Lake Center
04:05PM 38.9519 -113.9144 26° Northeast 509 586 41,000  Level Salt Lake Center
04:06PM 39.0789 -113.8339 26° Northeast 509 586 41,000  Level Salt Lake Center
04:07PM 39.2064 -113.7544 26° Northeast 509 586 41,000  Level Salt Lake Center
04:08PM 39.3594 -113.6544 27° Northeast 511 588 41,000  Level Salt Lake Center
04:09PM 39.4875 -113.5725 26° Northeast 513 590 41,000  Level Salt Lake Center
04:10PM 39.6158 -113.4914 26° Northeast 512 589 41,000  Level Salt Lake Center
04:11PM 39.7447 -113.4081 26° Northeast 516 594 41,000  Level Salt Lake Center
04:12PM 39.8864 -113.3172 26° Northeast 515 593 41,000  Level Salt Lake Center
04:13PM 40.0133 -113.2339 27° Northeast 512 589 41,000  Level Salt Lake Center
04:14PM 40.1419 -113.1497 27° Northeast 515 593 41,000  Level Salt Lake Center
04:15PM 40.2700 -113.0656 27° Northeast 515 593 41,000  Level Salt Lake Center
04:16PM 40.4008 -112.9825 26° Northeast 521 600 41,000  Level Salt Lake Center
04:17PM 40.5283 -112.8978 27° Northeast 513 590 41,000  Level Salt Lake Center
04:18PM 40.6569 -112.8108 27° Northeast 518 596 41,000  Level Salt Lake Center
04:19PM 40.8117 -112.7067 27° Northeast 521 600 41,000  Level Salt Lake Center
04:20PM 40.9406 -112.6206 27° Northeast 517 595 41,000  Level Salt Lake Center
04:21PM 41.0694 -112.5331 27° Northeast 517 595 41,000  Level Salt Lake Center
04:22PM 41.1992 -112.4453 27° Northeast 518 596 41,000  Level Salt Lake Center
04:23PM 41.3294 -112.3567 27° Northeast 521 600 41,000  Level Salt Lake Center
04:24PM 41.4589 -112.2683 27° Northeast 518 596 41,000  Level Salt Lake Center
04:25PM 41.5889 -112.1783 27° Northeast 522 601 41,000 -540 Level Salt Lake Center
04:26PM 41.7178 -112.0892 27° Northeast 520 598 39,900 -1,680 Descending Salt Lake Center
04:27PM 41.8417 -112.0028 27° Northeast 504 580 37,600 -2,520 Descending Salt Lake Center
04:28PM 41.9900 -111.9008 27° Northeast 499 574 34,800 -2,820 Descending Salt Lake Center
04:29PM 42.1167 -111.8133 27° Northeast 508 585 31,800 -2,940 Descending Salt Lake Center
04:30PM 42.2436 -111.7225 28° Northeast 515 593 28,800 -2,940 Descending Salt Lake Center
04:31PM 42.3706 -111.6339 27° Northeast 514 592 25,800 -2,820 Descending Salt Lake Center
04:32PM 42.4958 -111.5447 28° Northeast 508 585 23,100 -2,400 Descending Salt Lake Center
04:33PM 42.6133 -111.4617 27° Northeast 479 551 20,900 -1,500 Descending Salt Lake Center
04:34PM 42.7236 -111.3825 28° Northeast 443 510 20,000 -480 Descending Salt Lake Center
04:35PM 42.8083 -111.2781 42° Northeast 412 474 20,000 -300 Level Salt Lake Center
04:37PM 42.9169 -111.1642 38° Northeast 411 473 19,500 -1,140 Descending Salt Lake Center
04:38PM 43.0139 -111.0897 29° Northeast 402 463 17,700 -1,260 Descending Salt Lake Center
04:39PM 43.0967 -111.0072 36° Northeast 371 427 16,900 -420 Descending Salt Lake Center
04:40PM 43.1742 -110.9200 39° Northeast 363 418 16,900 -1,020 Level Salt Lake Center
04:41PM 43.2461 -110.8400 39° Northeast 339 390 14,900 -1,500 Descending Salt Lake Center
04:42PM 43.3214 -110.7617 37° Northeast 340 391 13,900 -960 Descending Salt Lake Center
04:43PM 43.4189 -110.7244 15° North 363 418 13,000 -1,140 Descending Salt Lake Center
04:44PM 43.5261 -110.6850 15° North 342 394 11,600 -1,440 Descending Salt Lake Center
04:45PM 43.6000 -110.6533 17° North 310 357 10,100 -1,560 Descending Salt Lake Center
04:46PM 43.6631 -110.6558 358° North 267 307 8,500 -1,380 Descending Salt Lake Center
04:47PM 43.6617 -110.7111 268° West 209 241 7,300 -1,020 Descending Salt Lake Center
04:48PM 43.6158 -110.7333 199° South 162 186 6,500 -780 Descending Salt Lake Center